Terminal Aerodrome Forecast
Issued by NWS Wichita, KS

Home | Current Version | Previous Version | Graphics & Text | Print | Product List | Glossary On
Versions: 1 2 3 4 5 6 7 8 9 10 11 12 13 14 15
000
FTUS43 KICT 161100
TAFICT
TAF
KICT 161131Z 1612/1712 06007KT P6SM OVC022
      TEMPO 1612/1615 BKN016
     FM161500 08008KT P6SM BKN030
     FM162000 16008KT P6SM BKN035
     FM170600 16007KT P6SM BKN020=

USA.gov is the U.S. government's official web portal to all federal, state and local government web resources and services.